Time;durP1;ratioP1;P1;durP2;ratioP2;P2;SDS_P1;SDS_P2;PMS_P1;PMS_P2;Temp;Humidity;BMP_temperature;BMP_pressure;BME280_temperature;BME280_humidity;BME280_pressure;Samples;Min_cycle;Max_cycle;Signal;HPM_P1;HPM_P2
2022/05/27 00:01:09;;;;;;;3.73;2.20;;;16.60;99.90;;;;;;5073001;28;20968;-45
2022/05/27 00:03:36;;;;;;;3.80;2.27;;;16.60;99.90;;;;;;5072872;28;20507;-44
2022/05/27 00:06:03;;;;;;;4.10;2.13;;;16.60;99.90;;;;;;5073210;28;20529;-45
2022/05/27 00:08:31;;;;;;;2.83;2.00;;;16.60;99.90;;;;;;5072951;28;20984;-44
2022/05/27 00:10:59;;;;;;;2.47;2.27;;;16.60;99.90;;;;;;5072682;28;20875;-44
2022/05/27 00:13:27;;;;;;;3.57;2.10;;;16.60;99.90;;;;;;5119690;22;20559;-46
2022/05/27 00:15:54;;;;;;;3.80;2.30;;;16.60;99.90;;;;;;5092754;28;20482;-48
2022/05/27 00:18:21;;;;;;;3.50;1.80;;;16.60;99.90;;;;;;5092775;28;20571;-46
2022/05/27 00:20:49;;;;;;;7.77;2.13;;;16.50;99.90;;;;;;5092598;28;20891;-46
2022/05/27 00:23:16;;;;;;;2.03;1.90;;;16.50;99.90;;;;;;5092784;28;20486;-45
2022/05/27 00:25:45;;;;;;;2.40;2.20;;;16.30;99.90;;;;;;5093055;28;20494;-46
2022/05/27 00:28:12;;;;;;;2.43;2.23;;;16.30;99.90;;;;;;5092937;28;20444;-45
2022/05/27 00:30:39;;;;;;;3.10;2.23;;;16.30;99.90;;;;;;5091443;28;20493;-46
2022/05/27 00:33:07;;;;;;;2.47;2.00;;;16.30;99.90;;;;;;5092496;28;20467;-45
2022/05/27 00:35:34;;;;;;;2.80;2.10;;;16.30;99.90;;;;;;5092497;28;20527;-46
2022/05/27 00:38:01;;;;;;;3.03;2.13;;;16.30;99.90;;;;;;5092275;28;20936;-50
2022/05/27 00:40:36;;;;;;;2.77;2.20;;;16.20;99.90;;;;;;5092334;28;20538;-45
2022/05/27 00:43:06;;;;;;;2.50;1.80;;;16.20;99.90;;;;;;5092442;28;20498;-49
2022/05/27 00:45:35;;;;;;;3.70;1.90;;;16.30;99.90;;;;;;5092401;28;20478;-45
2022/05/27 00:48:07;;;;;;;2.97;2.50;;;16.30;99.90;;;;;;5092250;28;20920;-46
2022/05/27 00:50:40;;;;;;;3.50;1.83;;;16.20;99.90;;;;;;5092190;28;20478;-49
2022/05/27 00:53:09;;;;;;;2.60;2.30;;;16.10;99.90;;;;;;5092378;28;20528;-45
2022/05/27 00:55:44;;;;;;;3.00;1.90;;;16.00;99.90;;;;;;5092400;28;20440;-45
2022/05/27 00:58:16;;;;;;;5.00;2.30;;;16.00;99.90;;;;;;5091872;28;20559;-45
2022/05/27 01:00:43;;;;;;;2.50;2.30;;;15.90;99.90;;;;;;5091767;28;20552;-46
2022/05/27 01:03:13;;;;;;;4.00;2.10;;;16.00;99.90;;;;;;5091996;28;20512;-47
2022/05/27 01:05:42;;;;;;;2.30;2.10;;;16.00;99.90;;;;;;5092389;28;20436;-46
2022/05/27 01:08:10;;;;;;;3.23;2.57;;;16.00;99.90;;;;;;5092139;28;20509;-46
2022/05/27 01:10:46;;;;;;;6.60;2.43;;;16.00;99.90;;;;;;5091884;28;20435;-45
2022/05/27 01:13:27;;;;;;;2.43;2.23;;;16.00;99.90;;;;;;5091674;28;20492;-50
2022/05/27 01:16:03;;;;;;;3.27;2.07;;;16.00;99.90;;;;;;5091776;28;20522;-46
2022/05/27 01:21:47;;;;;;;2.40;1.83;;;15.90;99.90;;;;;;5091980;28;20518;-46
2022/05/27 01:24:36;;;;;;;2.57;2.37;;;15.80;99.90;;;;;;5091933;28;20455;-45
2022/05/27 01:27:20;;;;;;;2.30;2.10;;;15.50;99.90;;;;;;5091817;28;20535;-46
2022/05/27 01:30:18;;;;;;;4.00;2.43;;;15.30;99.90;;;;;;5092022;28;20443;-45
2022/05/27 01:32:53;;;;;;;3.97;2.33;;;15.20;99.90;;;;;;5091688;28;20932;-45
2022/05/27 01:35:30;;;;;;;3.30;2.87;;;15.30;99.90;;;;;;5091792;28;20467;-45
2022/05/27 01:38:09;;;;;;;2.00;1.73;;;15.50;99.90;;;;;;5091552;28;20562;-49
2022/05/27 01:40:49;;;;;;;2.10;2.00;;;15.60;99.90;;;;;;5091255;28;20530;-47
2022/05/27 01:43:20;;;;;;;2.80;2.07;;;15.60;99.90;;;;;;5091501;28;20499;-45
2022/05/27 01:45:54;;;;;;;3.00;2.40;;;15.70;99.90;;;;;;5091664;28;20443;-48
2022/05/27 01:48:28;;;;;;;2.10;2.00;;;15.70;99.90;;;;;;5091342;28;20489;-52
2022/05/27 01:51:02;;;;;;;3.40;2.47;;;15.80;99.90;;;;;;5091440;28;20458;-44
2022/05/27 01:53:34;;;;;;;3.47;2.40;;;15.90;99.90;;;;;;5091567;28;20477;-45
2022/05/27 01:56:09;;;;;;;4.10;2.47;;;15.90;99.90;;;;;;5091578;28;20440;-45
2022/05/27 01:58:40;;;;;;;2.50;2.30;;;15.90;99.90;;;;;;5090813;28;20535;-46
2022/05/27 02:01:11;;;;;;;3.40;2.70;;;16.00;99.90;;;;;;5091266;28;20479;-46
2022/05/27 02:03:43;;;;;;;3.07;2.50;;;16.00;99.90;;;;;;5091647;28;20506;-45
2022/05/27 02:06:16;;;;;;;2.40;2.00;;;15.90;99.90;;;;;;5091319;28;20439;-45
2022/05/27 02:08:47;;;;;;;3.07;2.77;;;15.90;99.90;;;;;;5091207;28;20497;-46
2022/05/27 02:11:19;;;;;;;2.60;2.20;;;15.80;99.90;;;;;;5091380;28;20439;-45
2022/05/27 02:13:51;;;;;;;4.30;2.70;;;15.60;99.90;;;;;;5091124;28;21230;-45
2022/05/27 02:16:22;;;;;;;3.83;3.07;;;15.60;99.90;;;;;;5091247;28;20471;-46
2022/05/27 02:18:53;;;;;;;3.77;2.57;;;15.60;99.90;;;;;;5091338;28;20507;-45
2022/05/27 02:21:24;;;;;;;2.70;2.50;;;15.70;99.90;;;;;;5091150;28;20530;-47
2022/05/27 02:23:55;;;;;;;4.30;2.27;;;15.70;99.90;;;;;;5091274;28;20508;-45
2022/05/27 02:26:27;;;;;;;2.50;2.30;;;15.70;99.90;;;;;;5091086;28;20443;-46
2022/05/27 02:29:00;;;;;;;3.40;2.60;;;15.80;99.90;;;;;;5090767;28;20461;-49
2022/05/27 02:31:31;;;;;;;2.67;2.47;;;15.80;99.90;;;;;;5091255;28;20443;-45
2022/05/27 02:37:06;;;;;;;5.70;2.70;;;15.90;99.90;;;;;;5048271;28;20445;-50
2022/05/27 02:39:33;;;;;;;3.20;2.33;;;15.90;99.90;;;;;;5082109;28;20954;-48
2022/05/27 02:42:06;;;;;;;4.50;3.53;;;15.90;99.90;;;;;;5090890;28;20493;-45
2022/05/27 02:44:41;;;;;;;4.40;3.20;;;15.90;99.90;;;;;;5091139;28;20467;-46
2022/05/27 02:47:17;;;;;;;2.60;2.40;;;15.90;99.90;;;;;;5090824;28;20477;-45
2022/05/27 02:49:51;;;;;;;4.07;2.60;;;16.00;99.90;;;;;;5090768;28;20439;-45
2022/05/27 02:52:30;;;;;;;2.83;2.27;;;16.00;99.90;;;;;;5090720;28;20443;-45
2022/05/27 02:55:05;;;;;;;3.90;2.70;;;16.00;99.90;;;;;;5093307;28;20498;-45
2022/05/27 02:57:38;;;;;;;4.10;2.80;;;16.00;99.90;;;;;;5094520;28;20470;-46
2022/05/27 03:00:09;;;;;;;3.03;2.60;;;16.00;99.90;;;;;;5094236;28;20556;-45
2022/05/27 03:02:36;;;;;;;3.20;2.40;;;15.90;99.90;;;;;;5094589;28;20535;-46
2022/05/27 03:05:06;;;;;;;5.03;2.70;;;15.90;99.90;;;;;;5094456;28;20439;-45
2022/05/27 03:07:40;;;;;;;2.80;2.60;;;15.70;99.90;;;;;;5094606;28;20440;-48
2022/05/27 03:10:27;;;;;;;6.27;2.93;;;15.60;99.90;;;;;;5094123;28;20508;-46
2022/05/27 03:13:08;;;;;;;2.70;2.33;;;15.50;99.90;;;;;;5094368;28;20459;-45
2022/05/27 03:15:50;;;;;;;4.50;2.77;;;15.40;99.90;;;;;;5094537;28;20467;-46
2022/05/27 03:18:37;;;;;;;3.07;2.43;;;15.40;99.90;;;;;;5094209;28;20532;-46
2022/05/27 03:21:16;;;;;;;6.13;2.90;;;15.30;99.90;;;;;;5094295;28;20475;-45
2022/05/27 03:23:58;;;;;;;4.27;3.20;;;15.30;99.90;;;;;;5094249;28;20516;-49
2022/05/27 03:26:33;;;;;;;2.80;2.60;;;15.30;99.90;;;;;;5093867;28;21009;-48
2022/05/27 03:29:14;;;;;;;3.80;2.80;;;15.20;99.90;;;;;;5093846;28;20435;-45
2022/05/27 03:31:46;;;;;;;2.83;2.53;;;15.10;99.90;;;;;;5093788;28;20860;-45
2022/05/27 03:34:19;;;;;;;3.80;2.73;;;15.20;99.90;;;;;;5094363;28;20587;-45
2022/05/27 03:36:54;;;;;;;2.73;2.30;;;15.40;99.90;;;;;;5093936;28;20456;-46
2022/05/27 03:39:27;;;;;;;3.37;3.00;;;15.50;99.90;;;;;;5093627;28;20474;-45
2022/05/27 03:41:59;;;;;;;6.23;2.90;;;15.60;99.90;;;;;;5093513;28;20471;-45
2022/05/27 03:44:28;;;;;;;3.37;3.07;;;15.70;99.90;;;;;;5093773;28;20459;-46
2022/05/27 03:46:56;;;;;;;3.63;3.00;;;15.80;99.90;;;;;;5093794;28;20473;-50
2022/05/27 03:49:23;;;;;;;3.30;2.93;;;15.80;99.90;;;;;;5093532;28;20463;-46
2022/05/27 03:51:57;;;;;;;3.17;2.70;;;15.80;99.90;;;;;;5093513;28;20475;-45
2022/05/27 03:54:24;;;;;;;3.40;3.10;;;15.80;99.90;;;;;;5093293;28;20819;-45
2022/05/27 03:56:51;;;;;;;3.47;3.17;;;15.90;99.90;;;;;;5093298;28;20444;-46
2022/05/27 03:59:19;;;;;;;5.37;2.60;;;15.90;99.90;;;;;;5093133;28;20558;-47
2022/05/27 04:01:49;;;;;;;2.90;2.70;;;15.90;99.90;;;;;;5093357;28;20493;-46
2022/05/27 04:04:18;;;;;;;3.63;2.90;;;15.90;99.90;;;;;;5093121;28;20456;-49
2022/05/27 04:06:46;;;;;;;3.90;3.40;;;15.90;99.90;;;;;;5093133;28;20478;-45
2022/05/27 04:09:15;;;;;;;4.37;2.70;;;15.90;99.90;;;;;;5092678;28;20795;-46
2022/05/27 04:11:43;;;;;;;3.60;3.30;;;15.90;99.90;;;;;;5093007;28;20447;-46
2022/05/27 04:14:10;;;;;;;4.23;3.60;;;15.60;99.90;;;;;;5092906;28;20542;-45
2022/05/27 04:16:37;;;;;;;6.13;3.40;;;15.40;99.90;;;;;;5092998;28;20500;-45
2022/05/27 04:19:04;;;;;;;3.87;3.13;;;15.20;99.90;;;;;;5092690;28;20507;-45
2022/05/27 04:21:32;;;;;;;5.23;3.80;;;15.20;99.90;;;;;;5093053;28;20520;-46
2022/05/27 04:23:59;;;;;;;3.50;3.20;;;15.30;99.90;;;;;;5092847;28;20690;-45
2022/05/27 04:26:28;;;;;;;5.00;3.70;;;15.40;99.90;;;;;;5092803;28;20527;-46
2022/05/27 04:28:55;;;;;;;3.40;2.97;;;15.60;99.90;;;;;;5092597;28;20463;-45
2022/05/27 04:31:22;;;;;;;4.33;3.87;;;15.50;99.90;;;;;;5092688;28;20524;-45
2022/05/27 04:33:49;;;;;;;6.60;3.93;;;15.50;99.90;;;;;;5092510;28;20464;-46
2022/05/27 04:36:16;;;;;;;4.83;3.50;;;15.10;99.90;;;;;;5092350;28;20920;-47
2022/05/27 04:38:43;;;;;;;5.63;3.63;;;15.00;99.90;;;;;;5092411;28;20474;-45
2022/05/27 04:41:10;;;;;;;4.20;3.30;;;15.00;99.90;;;;;;5092506;28;20440;-47
2022/05/27 04:43:38;;;;;;;3.30;2.80;;;15.00;99.90;;;;;;5092394;28;20874;-45
2022/05/27 04:46:05;;;;;;;3.30;3.00;;;14.90;99.90;;;;;;5092513;28;20819;-45
2022/05/27 04:48:32;;;;;;;3.30;3.00;;;14.90;99.90;;;;;;5092509;28;20497;-49
2022/05/27 04:50:59;;;;;;;3.13;2.90;;;14.90;99.90;;;;;;5092240;28;20845;-45
2022/05/27 04:53:26;;;;;;;3.63;3.33;;;15.10;99.90;;;;;;5092088;28;20459;-45
2022/05/27 04:55:53;;;;;;;3.80;2.93;;;15.30;99.90;;;;;;5092329;28;20473;-45
2022/05/27 04:58:20;;;;;;;3.10;2.80;;;15.40;99.90;;;;;;5092253;28;20479;-45
2022/05/27 05:00:50;;;;;;;5.80;3.37;;;15.50;99.90;;;;;;5091810;28;20510;-48
2022/05/27 05:03:17;;;;;;;4.27;3.77;;;15.30;99.90;;;;;;5092175;28;20462;-46
2022/05/27 05:05:45;;;;;;;4.10;3.70;;;15.40;99.90;;;;;;5092340;28;20474;-45
2022/05/27 05:08:18;;;;;;;7.50;4.00;;;15.60;99.90;;;;;;5092001;28;20527;-45
2022/05/27 05:10:45;;;;;;;5.03;4.63;;;15.70;99.90;;;;;;5091695;28;20575;-45
2022/05/27 05:13:12;;;;;;;4.20;3.70;;;15.10;99.90;;;;;;5091569;28;20503;-46
2022/05/27 05:15:39;;;;;;;4.40;4.10;;;15.10;99.90;;;;;;5092249;28;20435;-45
2022/05/27 05:18:08;;;;;;;4.47;4.03;;;15.20;99.90;;;;;;5091558;28;20447;-47
2022/05/27 05:20:35;;;;;;;7.63;4.13;;;15.20;99.90;;;;;;5091706;28;20471;-46
2022/05/27 05:23:02;;;;;;;4.83;4.07;;;15.10;99.90;;;;;;5091714;28;20498;-45
2022/05/27 05:25:29;;;;;;;4.07;3.60;;;14.90;99.90;;;;;;5091682;28;20497;-44
2022/05/27 05:27:56;;;;;;;3.87;3.50;;;14.90;99.90;;;;;;5091693;28;20436;-45
2022/05/27 05:30:25;;;;;;;4.53;3.80;;;14.80;99.90;;;;;;5091384;28;20523;-45
2022/05/27 05:32:53;;;;;;;5.73;3.70;;;14.90;99.90;;;;;;5091664;28;20446;-45
2022/05/27 05:35:22;;;;;;;4.33;4.03;;;14.70;99.90;;;;;;5091994;28;20444;-46
2022/05/27 05:37:49;;;;;;;3.43;3.13;;;14.60;99.90;;;;;;5091730;28;20817;-45
2022/05/27 05:40:16;;;;;;;3.80;3.43;;;14.70;99.90;;;;;;5091259;28;20471;-49
2022/05/27 05:42:46;;;;;;;4.53;4.13;;;14.70;99.90;;;;;;5091703;28;20476;-45
2022/05/27 05:45:15;;;;;;;5.23;4.07;;;14.80;99.90;;;;;;5091542;28;20439;-45
2022/05/27 05:47:42;;;;;;;4.20;3.80;;;14.90;99.90;;;;;;5091872;28;20500;-49
2022/05/27 05:50:10;;;;;;;6.90;4.27;;;15.10;99.90;;;;;;5091211;28;20474;-45
2022/05/27 05:52:39;;;;;;;5.23;4.07;;;15.30;99.90;;;;;;5090961;28;20444;-46
2022/05/27 05:55:07;;;;;;;4.40;4.00;;;15.50;99.90;;;;;;5091246;28;20467;-45
2022/05/27 05:57:38;;;;;;;4.20;3.80;;;15.60;99.90;;;;;;5091580;28;20440;-45
2022/05/27 06:00:06;;;;;;;4.50;4.10;;;15.80;99.90;;;;;;5091359;28;20507;-46
2022/05/27 06:02:33;;;;;;;4.93;4.53;;;16.00;99.90;;;;;;5091430;28;20435;-50
2022/05/27 06:05:03;;;;;;;4.37;3.63;;;16.40;99.90;;;;;;5091163;28;20497;-46
2022/05/27 06:07:30;;;;;;;4.90;3.53;;;17.30;99.90;;;;;;5091620;28;20441;-47
2022/05/27 06:09:59;;;;;;;3.90;3.60;;;18.40;99.90;;;;;;5090995;28;20442;-45
2022/05/27 06:12:26;;;;;;;3.87;3.40;;;19.40;99.90;;;;;;5091047;28;20816;-47
2022/05/27 06:14:54;;;;;;;3.00;2.67;;;20.40;99.90;;;;;;5092088;28;20471;-47
2022/05/27 06:17:21;;;;;;;3.60;3.07;;;21.10;99.90;;;;;;5091112;28;20523;-46
2022/05/27 06:19:48;;;;;;;3.50;3.20;;;21.30;99.90;;;;;;5090953;28;20995;-46
2022/05/27 06:22:15;;;;;;;4.07;3.67;;;21.20;99.90;;;;;;5091297;28;20482;-46
2022/05/27 06:24:42;;;;;;;8.63;5.17;;;20.80;99.90;;;;;;5091265;28;20494;-45
2022/05/27 06:27:11;;;;;;;3.80;3.50;;;20.10;99.90;;;;;;5091143;28;20443;-45
2022/05/27 06:35:07;;;;;;;8.63;3.70;;;18.70;99.90;;;;;;5095317;28;20443;-46
2022/05/27 06:37:35;;;;;;;3.37;3.07;;;18.60;99.90;;;;;;5094949;28;20444;-46
2022/05/27 06:40:02;;;;;;;5.23;3.40;;;18.50;99.90;;;;;;5094725;28;20471;-46
2022/05/27 06:42:30;;;;;;;5.47;4.07;;;18.40;99.90;;;;;;5095166;28;20439;-45
2022/05/27 06:44:57;;;;;;;3.97;3.43;;;18.30;99.90;;;;;;5094930;28;20463;-45
2022/05/27 06:47:24;;;;;;;3.20;2.90;;;18.20;99.90;;;;;;5094707;28;20439;-47
2022/05/27 06:49:51;;;;;;;4.77;3.20;;;18.00;99.90;;;;;;5094154;28;20435;-45
2022/05/27 06:52:18;;;;;;;4.00;3.60;;;17.90;99.90;;;;;;5094609;28;20467;-48
2022/05/27 06:54:45;;;;;;;4.23;3.10;;;17.90;99.90;;;;;;5094462;28;20494;-46
2022/05/27 06:57:12;;;;;;;4.70;3.03;;;17.80;99.90;;;;;;5094634;28;20475;-46
2022/05/27 06:59:41;;;;;;;3.70;3.40;;;17.80;99.90;;;;;;5094658;28;20558;-46
2022/05/27 07:02:08;;;;;;;3.37;3.10;;;17.90;99.90;;;;;;5094803;28;20493;-46
2022/05/27 07:04:35;;;;;;;3.47;3.17;;;17.60;99.90;;;;;;5094413;28;20463;-46
2022/05/27 07:07:04;;;;;;;3.53;3.20;;;17.60;99.90;;;;;;5094573;28;20488;-47
2022/05/27 07:09:35;;;;;;;5.13;2.83;;;17.50;99.90;;;;;;5094098;28;20940;-45
2022/05/27 07:12:04;;;;;;;4.20;2.90;;;17.50;99.90;;;;;;5094476;28;20444;-45
2022/05/27 07:14:32;;;;;;;7.20;3.60;;;17.60;99.90;;;;;;5094071;28;20474;-47
2022/05/27 07:17:00;;;;;;;9.00;3.43;;;17.70;99.90;;;;;;5094326;28;20436;-45
2022/05/27 07:19:28;;;;;;;5.40;3.10;;;17.80;99.90;;;;;;5094168;28;20526;-45
2022/05/27 07:21:56;;;;;;;3.30;3.10;;;18.10;99.90;;;;;;5094240;28;20512;-45
2022/05/27 07:24:25;;;;;;;3.70;2.63;;;18.50;99.90;;;;;;5094052;28;20463;-45
2022/05/27 07:26:52;;;;;;;3.03;2.83;;;18.80;99.90;;;;;;5094003;28;20475;-46
2022/05/27 07:29:19;;;;;;;3.63;3.30;;;18.90;99.90;;;;;;5093555;28;20979;-46
2022/05/27 07:31:46;;;;;;;6.63;3.33;;;19.00;99.90;;;;;;5094215;28;20447;-46
2022/05/27 07:34:14;;;;;;;3.90;2.70;;;19.20;99.90;;;;;;5093954;28;20498;-51
2022/05/27 07:36:41;;;;;;;3.80;3.10;;;19.50;99.90;;;;;;5094135;28;20444;-48
2022/05/27 07:39:09;;;;;;;3.40;3.17;;;19.50;99.90;;;;;;5093606;28;20478;-45
2022/05/27 07:41:37;;;;;;;5.50;3.20;;;19.50;99.90;;;;;;5093348;28;20561;-48
2022/05/27 07:44:05;;;;;;;2.70;2.50;;;19.70;99.90;;;;;;5093562;28;20502;-48
2022/05/27 07:46:33;;;;;;;2.90;2.70;;;19.90;99.90;;;;;;5093542;28;20439;-48
2022/05/27 07:49:00;;;;;;;3.03;2.67;;;19.70;99.90;;;;;;5093575;28;20474;-49
2022/05/27 07:51:28;;;;;;;3.33;2.90;;;19.70;99.90;;;;;;5093330;28;20435;-44
2022/05/27 07:53:55;;;;;;;2.80;2.40;;;19.90;99.90;;;;;;5093485;28;20517;-46
2022/05/27 07:56:22;;;;;;;2.73;2.53;;;20.00;99.90;;;;;;5093548;28;20512;-50
2022/05/27 07:58:49;;;;;;;2.53;2.33;;;20.10;99.90;;;;;;5093070;28;20435;-48
2022/05/27 08:01:16;;;;;;;4.93;2.93;;;20.20;99.90;;;;;;5093471;28;20569;-45
2022/05/27 08:03:43;;;;;;;4.17;2.80;;;20.10;99.90;;;;;;5093482;28;20898;-45
2022/05/27 08:06:11;;;;;;;2.60;2.40;;;20.30;99.90;;;;;;5093213;28;20447;-45
2022/05/27 08:08:40;;;;;;;3.23;2.47;;;20.50;99.90;;;;;;5093101;28;20443;-48
2022/05/27 08:11:08;;;;;;;5.00;3.60;;;20.60;99.90;;;;;;5092850;28;20493;-45
2022/05/27 08:13:35;;;;;;;4.23;3.83;;;20.80;99.90;;;;;;5092812;28;20468;-48
2022/05/27 08:16:02;;;;;;;3.00;2.70;;;21.00;99.90;;;;;;5093057;28;20440;-46
2022/05/27 08:18:29;;;;;;;4.00;2.90;;;21.20;99.90;;;;;;5093035;28;20489;-46
2022/05/27 08:20:56;;;;;;;3.70;2.97;;;20.80;99.90;;;;;;5092658;28;20983;-46
2022/05/27 08:23:24;;;;;;;3.13;2.80;;;20.70;99.90;;;;;;5092607;28;20463;-46
2022/05/27 08:25:55;;;;;;;3.30;3.00;;;20.90;99.90;;;;;;5092977;28;20479;-45
2022/05/27 08:28:24;;;;;;;4.20;3.40;;;21.10;99.90;;;;;;5092971;28;20447;-47
2022/05/27 08:30:55;;;;;;;4.07;2.73;;;21.20;99.90;;;;;;5092648;28;20431;-46
2022/05/27 08:33:23;;;;;;;2.77;2.53;;;21.30;99.90;;;;;;5092199;28;20467;-46
2022/05/27 08:38:37;;;;;;;11.83;3.00;;;21.40;99.90;;;;;;5092785;28;20473;-45
2022/05/27 08:41:32;;;;;;;2.80;2.60;;;21.50;99.90;;;;;;5092171;28;21059;-45
2022/05/27 08:44:15;;;;;;;2.80;2.43;;;21.50;99.90;;;;;;5092421;28;20463;-45
2022/05/27 08:46:55;;;;;;;2.50;2.30;;;21.60;99.90;;;;;;5092647;28;20492;-46
2022/05/27 08:49:27;;;;;;;3.60;2.57;;;21.70;99.90;;;;;;5092355;28;20573;-48
2022/05/27 08:52:00;;;;;;;3.10;2.80;;;21.80;99.90;;;;;;5091856;28;20436;-49
2022/05/27 08:54:33;;;;;;;2.70;2.50;;;21.90;99.90;;;;;;5092301;28;20513;-46
2022/05/27 08:59:54;;;;;;;3.90;2.60;;;21.90;99.90;;;;;;5091922;28;20569;-45
2022/05/27 09:02:31;;;;;;;5.30;2.40;;;21.20;99.90;;;;;;5091807;28;20438;-45
2022/05/27 09:05:07;;;;;;;6.23;2.70;;;20.80;99.90;;;;;;5091618;28;20463;-45
2022/05/27 09:07:41;;;;;;;2.70;2.50;;;20.10;99.90;;;;;;5092100;28;20486;-45
2022/05/27 09:10:11;;;;;;;2.67;2.43;;;20.00;99.90;;;;;;5091822;28;20471;-45
2022/05/27 09:13:06;;;;;;;2.40;2.20;;;20.00;99.90;;;;;;5092014;28;20861;-45
2022/05/27 09:15:39;;;;;;;4.20;2.30;;;20.30;99.90;;;;;;5091949;28;20431;-45
2022/05/27 09:18:14;;;;;;;2.70;2.50;;;20.70;99.90;;;;;;5092149;28;20467;-46
2022/05/27 09:20:51;;;;;;;2.20;2.00;;;20.90;99.90;;;;;;5091575;28;20566;-45
2022/05/27 09:23:54;;;;;;;2.50;2.30;;;21.30;99.90;;;;;;5091772;28;20542;-48
2022/05/27 09:26:29;;;;;;;2.40;2.20;;;21.50;99.90;;;;;;5044213;28;20465;-45
2022/05/27 09:29:10;;;;;;;2.13;1.93;;;21.60;99.90;;;;;;5091635;28;20865;-46
2022/05/27 09:31:41;;;;;;;2.73;2.53;;;21.40;99.90;;;;;;5091607;28;20529;-46
2022/05/27 09:34:11;;;;;;;2.27;2.07;;;21.70;99.90;;;;;;5091800;28;20464;-45
2022/05/27 09:36:42;;;;;;;2.33;2.13;;;21.90;99.90;;;;;;5091917;28;20770;-45
2022/05/27 09:39:12;;;;;;;2.60;1.90;;;22.10;99.90;;;;;;5091497;28;20471;-46
2022/05/27 09:41:46;;;;;;;2.40;1.93;;;22.20;99.90;;;;;;5091356;28;20579;-50
2022/05/27 09:44:22;;;;;;;2.60;1.97;;;22.30;99.90;;;;;;5091718;28;20463;-51
2022/05/27 09:46:50;;;;;;;2.20;1.80;;;21.90;99.90;;;;;;5092034;28;20536;-46
2022/05/27 09:49:17;;;;;;;2.97;2.43;;;21.60;99.90;;;;;;5091285;28;20428;-49
2022/05/27 09:51:44;;;;;;;5.40;2.90;;;21.30;99.90;;;;;;5091786;28;20475;-47
2022/05/27 09:54:24;;;;;;;3.20;1.93;;;21.50;99.90;;;;;;5091308;28;20964;-45
2022/05/27 09:56:59;;;;;;;4.10;2.20;;;21.50;99.90;;;;;;5091395;28;20817;-46
2022/05/27 09:59:35;;;;;;;2.93;2.20;;;21.70;99.90;;;;;;5091663;28;20504;-47
2022/05/27 10:02:23;;;;;;;2.40;2.20;;;21.60;99.90;;;;;;5091643;28;20474;-46
2022/05/27 10:04:56;;;;;;;3.23;1.90;;;21.80;99.90;;;;;;5090047;28;20502;-48
2022/05/27 10:07:30;;;;;;;3.60;2.40;;;22.00;99.90;;;;;;5095618;28;21087;-47
2022/05/27 10:09:58;;;;;;;2.40;2.20;;;22.20;99.90;;;;;;5095169;28;20427;-46
2022/05/27 10:12:30;;;;;;;2.17;1.90;;;22.30;99.90;;;;;;5095367;28;20462;-46
2022/05/27 10:14:58;;;;;;;2.40;2.17;;;22.40;99.90;;;;;;5095209;28;20550;-44
2022/05/27 10:17:31;;;;;;;2.50;1.73;;;22.40;99.90;;;;;;5095332;28;20484;-48
2022/05/27 10:20:17;;;;;;;3.67;1.83;;;22.50;99.90;;;;;;5095359;28;20443;-43
2022/05/27 10:22:59;;;;;;;3.10;2.10;;;22.50;99.90;;;;;;5095227;28;20462;-44
2022/05/27 10:25:33;;;;;;;3.30;1.93;;;22.60;99.90;;;;;;5095243;28;20478;-44
2022/05/27 10:28:00;;;;;;;2.53;1.83;;;22.70;99.90;;;;;;5094987;28;20951;-44
2022/05/27 10:30:30;;;;;;;2.97;1.93;;;22.70;99.90;;;;;;5094982;28;20489;-44
2022/05/27 10:33:14;;;;;;;2.17;1.63;;;22.90;99.90;;;;;;5095032;28;20463;-44
2022/05/27 10:35:41;;;;;;;1.80;1.70;;;22.90;99.90;;;;;;5095252;28;20471;-43
2022/05/27 10:38:38;;;;;;;1.40;1.30;;;22.70;99.90;;;;;;5094932;28;20474;-44
2022/05/27 10:41:10;;;;;;;3.20;1.93;;;22.60;99.90;;;;;;5088151;28;20475;-48
2022/05/27 10:43:54;;;;;;;3.67;2.10;;;22.80;99.90;;;;;;5095071;28;20455;-44
2022/05/27 10:46:29;;;;;;;4.27;1.80;;;22.90;99.90;;;;;;5095158;28;20454;-46
2022/05/27 10:49:29;;;;;;;2.50;1.93;;;22.60;99.90;;;;;;5094647;28;20454;-44
2022/05/27 10:52:09;;;;;;;2.00;1.80;;;22.60;99.90;;;;;;5077777;28;20443;-44
2022/05/27 10:54:47;;;;;;;1.77;1.30;;;22.80;99.90;;;;;;5094677;28;20499;-45
2022/05/27 11:03:19;;;;;;;2.00;1.80;;;23.10;99.90;;;;;;5094531;28;20439;-46
2022/05/27 11:06:00;;;;;;;3.03;1.80;;;23.20;99.90;;;;;;5094590;28;21018;-47
2022/05/27 11:08:30;;;;;;;2.97;2.00;;;23.20;99.90;;;;;;5094392;28;20477;-44
2022/05/27 11:11:15;;;;;;;1.90;1.80;;;23.00;99.90;;;;;;5094199;28;20467;-45
2022/05/27 11:17:05;;;;;;;3.30;1.60;;;23.00;99.90;;;;;;5093008;28;20934;-47
2022/05/27 11:20:12;;;;;;;1.90;1.70;;;23.10;99.90;;;;;;5089786;28;20486;-44
2022/05/27 11:22:49;;;;;;;2.43;1.50;;;23.20;99.90;;;;;;5086548;28;20845;-44
2022/05/27 11:25:27;;;;;;;2.93;2.00;;;23.30;99.90;;;;;;5093994;28;20522;-46
2022/05/27 11:28:19;;;;;;;2.90;2.10;;;23.30;99.90;;;;;;5093588;28;20435;-44
2022/05/27 11:30:58;;;;;;;1.70;1.57;;;23.30;99.90;;;;;;5093323;28;20819;-44
2022/05/27 11:33:38;;;;;;;2.10;1.67;;;23.30;99.90;;;;;;5093384;28;20512;-43
2022/05/27 11:36:27;;;;;;;3.13;1.90;;;23.40;99.90;;;;;;5093512;28;20980;-44
2022/05/27 11:39:19;;;;;;;2.77;1.83;;;23.40;99.90;;;;;;5093219;28;20534;-44
2022/05/27 11:41:56;;;;;;;2.07;1.40;;;23.50;99.90;;;;;;5093301;28;20471;-44
2022/05/27 11:44:34;;;;;;;2.33;1.83;;;23.40;99.90;;;;;;5093106;28;20455;-44
2022/05/27 11:47:28;;;;;;;2.43;2.23;;;23.30;99.90;;;;;;5093272;28;20447;-45
2022/05/27 11:50:10;;;;;;;2.93;1.70;;;23.30;99.90;;;;;;5092854;28;20446;-45
2022/05/27 11:52:55;;;;;;;3.00;2.33;;;23.40;99.90;;;;;;5092629;28;20541;-47
2022/05/27 11:55:45;;;;;;;1.97;1.77;;;23.40;99.90;;;;;;5093119;28;20443;-44
2022/05/27 11:58:18;;;;;;;2.00;1.77;;;23.50;99.90;;;;;;5092973;28;20985;-44
2022/05/27 12:00:49;;;;;;;2.50;1.87;;;23.50;99.90;;;;;;5092961;28;20439;-45
2022/05/27 12:03:23;;;;;;;2.60;1.57;;;23.40;99.90;;;;;;5092577;28;20491;-44
2022/05/27 12:05:53;;;;;;;2.67;1.60;;;23.50;99.90;;;;;;5092278;28;20486;-45
2022/05/27 12:08:28;;;;;;;2.20;1.60;;;23.50;99.90;;;;;;5092926;28;20447;-46
2022/05/27 12:11:02;;;;;;;1.80;1.47;;;23.50;99.90;;;;;;5092738;28;20434;-44
2022/05/27 12:13:33;;;;;;;5.13;1.80;;;23.60;99.90;;;;;;5149116;22;20459;-47
2022/05/27 12:16:05;;;;;;;5.97;2.17;;;23.80;99.90;;;;;;5072901;28;21018;-50
2022/05/27 12:18:38;;;;;;;3.60;2.13;;;23.90;99.90;;;;;;5072971;28;20520;-45
2022/05/27 12:21:09;;;;;;;1.50;1.40;;;24.10;99.90;;;;;;5072746;28;20441;-45
2022/05/27 12:23:41;;;;;;;1.70;1.37;;;24.00;99.90;;;;;;5073134;28;20858;-46
2022/05/27 12:26:10;;;;;;;1.50;1.40;;;24.00;99.90;;;;;;5072299;28;20476;-45
2022/05/27 12:28:40;;;;;;;4.00;1.60;;;24.20;99.90;;;;;;5072297;28;20440;-45
2022/05/27 12:31:09;;;;;;;1.80;1.50;;;24.20;99.90;;;;;;5072247;28;20470;-49
2022/05/27 12:33:37;;;;;;;2.43;1.50;;;24.30;99.90;;;;;;5072342;28;20537;-47
2022/05/27 12:36:06;;;;;;;2.30;1.53;;;24.30;99.90;;;;;;5072322;28;20454;-46
2022/05/27 12:38:35;;;;;;;2.53;1.37;;;24.30;99.90;;;;;;5072569;28;20472;-45
2022/05/27 12:41:05;;;;;;;2.10;1.30;;;24.00;99.90;;;;;;5072328;28;20444;-45
2022/05/27 12:43:37;;;;;;;4.93;1.40;;;24.10;99.90;;;;;;5072432;28;20521;-46
2022/05/27 12:46:29;;;;;;;2.03;1.10;;;24.10;99.90;;;;;;5072344;28;20790;-45
2022/05/27 12:49:23;;;;;;;2.80;1.23;;;24.20;99.90;;;;;;5072127;28;20478;-43
2022/05/27 12:51:50;;;;;;;1.53;1.43;;;24.10;99.40;;;;;;5072359;28;20949;-44
2022/05/27 12:54:50;;;;;;;2.37;1.43;;;24.10;99.60;;;;;;5072069;28;20543;-46
2022/05/27 13:03:48;;;;;;;3.00;1.43;;;24.10;99.90;;;;;;5056178;28;20515;-45
2022/05/27 13:06:36;;;;;;;2.47;1.40;;;24.00;99.90;;;;;;5071969;28;20535;-45
2022/05/27 13:09:06;;;;;;;5.00;1.67;;;23.90;99.90;;;;;;5071586;28;20543;-48
2022/05/27 13:11:46;;;;;;;4.50;1.37;;;23.90;99.90;;;;;;5071939;28;20475;-44
2022/05/27 13:14:36;;;;;;;1.60;1.30;;;24.00;99.90;;;;;;5071600;28;20476;-45
2022/05/27 13:17:08;;;;;;;4.97;1.77;;;24.00;99.90;;;;;;5071699;28;20468;-45
2022/05/27 13:19:44;;;;;;;7.17;1.87;;;24.00;99.90;;;;;;5071616;28;20497;-45
2022/05/27 13:22:14;;;;;;;2.13;1.40;;;24.10;99.90;;;;;;5071634;28;21041;-45
2022/05/27 13:24:43;;;;;;;3.13;1.33;;;24.10;98.90;;;;;;5071510;28;20499;-48
2022/05/27 13:27:26;;;;;;;2.50;1.53;;;24.10;99.90;;;;;;5071453;28;20440;-45
2022/05/27 13:30:06;;;;;;;2.23;1.30;;;24.00;99.90;;;;;;5071385;28;20482;-45
2022/05/27 13:32:37;;;;;;;3.13;2.03;;;23.90;99.90;;;;;;5071822;28;20445;-45
2022/05/27 13:35:10;;;;;;;1.77;1.40;;;23.80;99.90;;;;;;5071516;28;20464;-46
2022/05/27 13:37:48;;;;;;;2.40;1.00;;;23.90;99.30;;;;;;5071126;28;20539;-45
2022/05/27 13:40:20;;;;;;;2.13;1.40;;;24.00;99.50;;;;;;5071198;28;20915;-45
2022/05/27 13:42:49;;;;;;;6.40;2.00;;;24.10;99.90;;;;;;5071466;28;20519;-49
2022/05/27 13:45:25;;;;;;;2.53;1.40;;;24.30;99.90;;;;;;5071309;28;20464;-45
2022/05/27 13:47:57;;;;;;;2.47;1.10;;;24.50;99.90;;;;;;5071497;28;20809;-44